sensor_id;sensor_type;location;lat;lon;timestamp;temperature;humidity
23475;DHT22;11910;52.086;21.066;2022-07-23T00:01:36;20.60;99.90
23475;DHT22;11910;52.086;21.066;2022-07-23T00:04:02;20.70;99.90
23475;DHT22;11910;52.086;21.066;2022-07-23T00:06:27;20.80;99.90
23475;DHT22;11910;52.086;21.066;2022-07-23T00:08:53;20.80;99.90
23475;DHT22;11910;52.086;21.066;2022-07-23T00:11:19;20.80;99.90
23475;DHT22;11910;52.086;21.066;2022-07-23T00:13:45;20.70;99.90
23475;DHT22;11910;52.086;21.066;2022-07-23T00:16:10;20.60;99.90
23475;DHT22;11910;52.086;21.066;2022-07-23T00:18:36;20.50;99.90
23475;DHT22;11910;52.086;21.066;2022-07-23T00:21:02;20.50;99.90
23475;DHT22;11910;52.086;21.066;2022-07-23T00:23:28;20.50;99.90
23475;DHT22;11910;52.086;21.066;2022-07-23T00:25:54;20.60;99.90
23475;DHT22;11910;52.086;21.066;2022-07-23T00:28:20;20.50;99.90
23475;DHT22;11910;52.086;21.066;2022-07-23T00:30:46;20.50;99.90
23475;DHT22;11910;52.086;21.066;2022-07-23T00:33:12;20.40;99.90
23475;DHT22;11910;52.086;21.066;2022-07-23T00:35:40;20.30;99.90
23475;DHT22;11910;52.086;21.066;2022-07-23T00:38:07;20.20;99.90
23475;DHT22;11910;52.086;21.066;2022-07-23T00:40:35;20.20;99.90
23475;DHT22;11910;52.086;21.066;2022-07-23T00:43:03;20.10;99.90
23475;DHT22;11910;52.086;21.066;2022-07-23T00:45:28;20.10;99.90
23475;DHT22;11910;52.086;21.066;2022-07-23T00:47:54;20.20;99.90
23475;DHT22;11910;52.086;21.066;2022-07-23T00:50:20;20.20;99.90
23475;DHT22;11910;52.086;21.066;2022-07-23T00:52:46;20.30;99.90
23475;DHT22;11910;52.086;21.066;2022-07-23T00:55:12;20.20;99.90
23475;DHT22;11910;52.086;21.066;2022-07-23T00:57:39;20.10;99.90
23475;DHT22;11910;52.086;21.066;2022-07-23T01:00:08;20.10;99.90
23475;DHT22;11910;52.086;21.066;2022-07-23T01:02:34;20.10;99.90
23475;DHT22;11910;52.086;21.066;2022-07-23T01:05:00;20.20;99.90
23475;DHT22;11910;52.086;21.066;2022-07-23T01:07:26;20.20;99.90
23475;DHT22;11910;52.086;21.066;2022-07-23T01:09:52;20.20;99.90
23475;DHT22;11910;52.086;21.066;2022-07-23T01:12:18;20.00;99.90
23475;DHT22;11910;52.086;21.066;2022-07-23T01:14:44;20.00;99.90
23475;DHT22;11910;52.086;21.066;2022-07-23T01:17:09;19.90;99.90
23475;DHT22;11910;52.086;21.066;2022-07-23T01:19:35;19.90;99.90
23475;DHT22;11910;52.086;21.066;2022-07-23T01:22:02;19.80;99.90
23475;DHT22;11910;52.086;21.066;2022-07-23T01:24:28;19.80;99.90
23475;DHT22;11910;52.086;21.066;2022-07-23T01:26:54;19.80;99.90
23475;DHT22;11910;52.086;21.066;2022-07-23T01:29:20;19.80;99.90
23475;DHT22;11910;52.086;21.066;2022-07-23T01:31:47;19.80;99.90
23475;DHT22;11910;52.086;21.066;2022-07-23T01:34:13;19.70;99.90
23475;DHT22;11910;52.086;21.066;2022-07-23T01:36:39;19.70;99.90
23475;DHT22;11910;52.086;21.066;2022-07-23T01:39:06;19.70;99.90
23475;DHT22;11910;52.086;21.066;2022-07-23T01:41:32;19.70;99.90
23475;DHT22;11910;52.086;21.066;2022-07-23T01:43:57;19.60;99.90
23475;DHT22;11910;52.086;21.066;2022-07-23T01:46:23;19.50;99.90
23475;DHT22;11910;52.086;21.066;2022-07-23T01:48:49;19.50;99.90
23475;DHT22;11910;52.086;21.066;2022-07-23T01:51:14;19.50;99.90
23475;DHT22;11910;52.086;21.066;2022-07-23T01:53:40;19.50;99.90
23475;DHT22;11910;52.086;21.066;2022-07-23T01:56:06;19.40;99.90
23475;DHT22;11910;52.086;21.066;2022-07-23T01:58:32;19.60;99.90
23475;DHT22;11910;52.086;21.066;2022-07-23T02:00:58;19.60;99.90
23475;DHT22;11910;52.086;21.066;2022-07-23T02:03:24;19.50;99.90
23475;DHT22;11910;52.086;21.066;2022-07-23T02:05:50;19.60;99.90
23475;DHT22;11910;52.086;21.066;2022-07-23T02:08:16;19.80;99.90
23475;DHT22;11910;52.086;21.066;2022-07-23T02:10:42;19.80;99.90
23475;DHT22;11910;52.086;21.066;2022-07-23T02:13:08;19.90;99.90
23475;DHT22;11910;52.086;21.066;2022-07-23T02:15:34;19.90;99.90
23475;DHT22;11910;52.086;21.066;2022-07-23T02:17:59;19.90;99.90
23475;DHT22;11910;52.086;21.066;2022-07-23T02:20:25;19.70;99.90
23475;DHT22;11910;52.086;21.066;2022-07-23T02:22:51;19.60;99.90
23475;DHT22;11910;52.086;21.066;2022-07-23T02:25:17;19.60;99.90
23475;DHT22;11910;52.086;21.066;2022-07-23T02:27:43;19.50;99.90
23475;DHT22;11910;52.086;21.066;2022-07-23T02:30:09;19.50;99.90
23475;DHT22;11910;52.086;21.066;2022-07-23T02:32:36;19.40;99.90
23475;DHT22;11910;52.086;21.066;2022-07-23T02:35:03;19.40;99.90
23475;DHT22;11910;52.086;21.066;2022-07-23T02:37:29;19.50;99.90
23475;DHT22;11910;52.086;21.066;2022-07-23T02:39:55;19.60;99.90
23475;DHT22;11910;52.086;21.066;2022-07-23T02:42:20;19.50;99.90
23475;DHT22;11910;52.086;21.066;2022-07-23T02:44:46;19.50;99.90
23475;DHT22;11910;52.086;21.066;2022-07-23T02:47:12;19.40;99.90
23475;DHT22;11910;52.086;21.066;2022-07-23T02:49:37;19.40;99.90
23475;DHT22;11910;52.086;21.066;2022-07-23T02:52:04;19.60;99.90
23475;DHT22;11910;52.086;21.066;2022-07-23T02:54:29;19.60;99.90
23475;DHT22;11910;52.086;21.066;2022-07-23T02:56:55;19.40;99.90
23475;DHT22;11910;52.086;21.066;2022-07-23T02:59:20;19.40;99.90
23475;DHT22;11910;52.086;21.066;2022-07-23T03:01:47;19.30;99.90
23475;DHT22;11910;52.086;21.066;2022-07-23T03:14:48;19.60;99.90
23475;DHT22;11910;52.086;21.066;2022-07-23T03:17:14;19.50;99.90
23475;DHT22;11910;52.086;21.066;2022-07-23T03:19:40;19.50;99.90
23475;DHT22;11910;52.086;21.066;2022-07-23T03:22:06;19.60;99.90
23475;DHT22;11910;52.086;21.066;2022-07-23T03:24:32;19.70;99.90
23475;DHT22;11910;52.086;21.066;2022-07-23T03:27:16;19.60;99.90
23475;DHT22;11910;52.086;21.066;2022-07-23T03:29:42;19.60;99.90
23475;DHT22;11910;52.086;21.066;2022-07-23T03:32:08;19.50;99.90
23475;DHT22;11910;52.086;21.066;2022-07-23T03:34:33;19.50;99.90
23475;DHT22;11910;52.086;21.066;2022-07-23T03:36:59;19.50;99.90
23475;DHT22;11910;52.086;21.066;2022-07-23T03:39:25;19.50;99.90
23475;DHT22;11910;52.086;21.066;2022-07-23T03:41:50;19.50;99.90
23475;DHT22;11910;52.086;21.066;2022-07-23T03:44:16;19.50;99.90
23475;DHT22;11910;52.086;21.066;2022-07-23T03:46:42;19.50;99.90
23475;DHT22;11910;52.086;21.066;2022-07-23T03:49:07;19.50;99.90
23475;DHT22;11910;52.086;21.066;2022-07-23T03:51:33;19.50;99.90
23475;DHT22;11910;52.086;21.066;2022-07-23T03:53:58;19.50;99.90
23475;DHT22;11910;52.086;21.066;2022-07-23T03:56:24;19.60;99.90
23475;DHT22;11910;52.086;21.066;2022-07-23T03:58:50;19.60;99.90
23475;DHT22;11910;52.086;21.066;2022-07-23T04:01:15;19.70;99.90
23475;DHT22;11910;52.086;21.066;2022-07-23T04:03:41;19.80;99.90
23475;DHT22;11910;52.086;21.066;2022-07-23T04:06:07;19.80;99.90
23475;DHT22;11910;52.086;21.066;2022-07-23T04:08:33;20.00;99.90
23475;DHT22;11910;52.086;21.066;2022-07-23T04:10:58;20.00;99.90
23475;DHT22;11910;52.086;21.066;2022-07-23T04:13:24;20.10;99.90
23475;DHT22;11910;52.086;21.066;2022-07-23T04:15:50;20.20;99.90
23475;DHT22;11910;52.086;21.066;2022-07-23T04:18:17;20.30;99.90
23475;DHT22;11910;52.086;21.066;2022-07-23T04:20:43;20.50;99.90
23475;DHT22;11910;52.086;21.066;2022-07-23T04:23:09;20.70;99.90
23475;DHT22;11910;52.086;21.066;2022-07-23T04:25:36;20.70;99.90
23475;DHT22;11910;52.086;21.066;2022-07-23T04:28:02;20.80;99.90
23475;DHT22;11910;52.086;21.066;2022-07-23T04:30:27;20.90;99.90
23475;DHT22;11910;52.086;21.066;2022-07-23T04:32:53;21.10;99.90
23475;DHT22;11910;52.086;21.066;2022-07-23T04:35:19;21.20;99.90
23475;DHT22;11910;52.086;21.066;2022-07-23T04:37:44;21.30;99.90
23475;DHT22;11910;52.086;21.066;2022-07-23T04:40:11;21.40;99.90
23475;DHT22;11910;52.086;21.066;2022-07-23T04:42:37;21.50;99.90
23475;DHT22;11910;52.086;21.066;2022-07-23T04:45:03;21.60;99.90
23475;DHT22;11910;52.086;21.066;2022-07-23T04:47:30;21.70;99.90
23475;DHT22;11910;52.086;21.066;2022-07-23T04:49:56;21.80;99.90
23475;DHT22;11910;52.086;21.066;2022-07-23T04:52:22;21.80;99.90
23475;DHT22;11910;52.086;21.066;2022-07-23T04:54:48;21.90;99.90
23475;DHT22;11910;52.086;21.066;2022-07-23T04:57:14;22.00;99.90
23475;DHT22;11910;52.086;21.066;2022-07-23T04:59:40;22.00;99.90
23475;DHT22;11910;52.086;21.066;2022-07-23T05:02:05;22.10;99.90
23475;DHT22;11910;52.086;21.066;2022-07-23T05:04:31;22.20;99.90
23475;DHT22;11910;52.086;21.066;2022-07-23T05:06:57;22.20;99.90
23475;DHT22;11910;52.086;21.066;2022-07-23T05:09:23;22.20;99.90
23475;DHT22;11910;52.086;21.066;2022-07-23T05:11:49;22.40;99.90
23475;DHT22;11910;52.086;21.066;2022-07-23T05:14:15;22.40;99.90
23475;DHT22;11910;52.086;21.066;2022-07-23T05:16:41;22.40;99.90
23475;DHT22;11910;52.086;21.066;2022-07-23T05:19:07;22.50;99.90
23475;DHT22;11910;52.086;21.066;2022-07-23T05:21:33;22.50;99.90
23475;DHT22;11910;52.086;21.066;2022-07-23T05:23:59;22.60;99.90
23475;DHT22;11910;52.086;21.066;2022-07-23T05:26:25;22.60;99.90
23475;DHT22;11910;52.086;21.066;2022-07-23T05:28:51;22.70;99.90
23475;DHT22;11910;52.086;21.066;2022-07-23T05:31:17;22.70;99.90
23475;DHT22;11910;52.086;21.066;2022-07-23T05:33:43;22.80;99.90
23475;DHT22;11910;52.086;21.066;2022-07-23T05:36:09;22.80;99.90
23475;DHT22;11910;52.086;21.066;2022-07-23T05:38:35;22.80;99.90
23475;DHT22;11910;52.086;21.066;2022-07-23T05:41:01;22.90;99.90
23475;DHT22;11910;52.086;21.066;2022-07-23T05:43:27;23.00;99.90
23475;DHT22;11910;52.086;21.066;2022-07-23T05:45:53;23.10;99.90
23475;DHT22;11910;52.086;21.066;2022-07-23T05:48:19;23.20;99.90
23475;DHT22;11910;52.086;21.066;2022-07-23T05:50:46;23.30;99.90
23475;DHT22;11910;52.086;21.066;2022-07-23T05:53:11;23.40;99.90
23475;DHT22;11910;52.086;21.066;2022-07-23T05:55:37;23.50;99.90
23475;DHT22;11910;52.086;21.066;2022-07-23T05:58:03;23.50;99.90
23475;DHT22;11910;52.086;21.066;2022-07-23T06:00:29;23.60;99.90
23475;DHT22;11910;52.086;21.066;2022-07-23T06:02:55;23.70;99.90
23475;DHT22;11910;52.086;21.066;2022-07-23T06:05:21;23.80;99.90
23475;DHT22;11910;52.086;21.066;2022-07-23T06:07:49;23.90;99.90
23475;DHT22;11910;52.086;21.066;2022-07-23T06:10:16;23.90;99.40
23475;DHT22;11910;52.086;21.066;2022-07-23T06:12:42;24.00;99.40
23475;DHT22;11910;52.086;21.066;2022-07-23T06:15:09;24.20;98.70
23475;DHT22;11910;52.086;21.066;2022-07-23T06:17:36;24.20;98.20
23475;DHT22;11910;52.086;21.066;2022-07-23T06:20:06;24.30;98.30
23475;DHT22;11910;52.086;21.066;2022-07-23T06:22:32;24.30;98.00
23475;DHT22;11910;52.086;21.066;2022-07-23T06:24:57;24.40;98.70
23475;DHT22;11910;52.086;21.066;2022-07-23T06:27:23;24.50;98.00
23475;DHT22;11910;52.086;21.066;2022-07-23T06:29:48;24.50;98.60
23475;DHT22;11910;52.086;21.066;2022-07-23T06:32:14;24.60;97.80
23475;DHT22;11910;52.086;21.066;2022-07-23T06:34:40;24.70;97.20
23475;DHT22;11910;52.086;21.066;2022-07-23T06:37:06;24.80;98.00
23475;DHT22;11910;52.086;21.066;2022-07-23T06:39:31;24.90;97.70
23475;DHT22;11910;52.086;21.066;2022-07-23T06:41:57;24.90;99.80
23475;DHT22;11910;52.086;21.066;2022-07-23T06:44:23;25.00;98.70
23475;DHT22;11910;52.086;21.066;2022-07-23T06:46:48;25.10;97.20
23475;DHT22;11910;52.086;21.066;2022-07-23T06:49:14;25.20;96.70
23475;DHT22;11910;52.086;21.066;2022-07-23T06:51:43;25.30;96.40
23475;DHT22;11910;52.086;21.066;2022-07-23T06:54:09;25.40;96.00
23475;DHT22;11910;52.086;21.066;2022-07-23T06:56:34;25.50;95.60
23475;DHT22;11910;52.086;21.066;2022-07-23T06:59:00;25.50;95.00
23475;DHT22;11910;52.086;21.066;2022-07-23T07:01:26;25.60;97.40
23475;DHT22;11910;52.086;21.066;2022-07-23T07:03:52;25.60;96.50
23475;DHT22;11910;52.086;21.066;2022-07-23T07:06:18;25.60;97.10
23475;DHT22;11910;52.086;21.066;2022-07-23T07:08:43;25.70;95.70
23475;DHT22;11910;52.086;21.066;2022-07-23T07:11:09;25.70;96.20
23475;DHT22;11910;52.086;21.066;2022-07-23T07:13:36;25.70;95.50
23475;DHT22;11910;52.086;21.066;2022-07-23T07:16:02;25.80;95.90
23475;DHT22;11910;52.086;21.066;2022-07-23T07:18:27;25.90;94.40
23475;DHT22;11910;52.086;21.066;2022-07-23T07:20:53;26.00;94.10
23475;DHT22;11910;52.086;21.066;2022-07-23T07:23:19;26.10;93.20
23475;DHT22;11910;52.086;21.066;2022-07-23T07:25:46;26.20;92.60
23475;DHT22;11910;52.086;21.066;2022-07-23T07:28:12;26.30;95.80
23475;DHT22;11910;52.086;21.066;2022-07-23T07:30:38;26.40;94.10
23475;DHT22;11910;52.086;21.066;2022-07-23T07:33:04;26.40;93.60
23475;DHT22;11910;52.086;21.066;2022-07-23T07:35:29;26.50;92.20
23475;DHT22;11910;52.086;21.066;2022-07-23T07:37:57;26.60;91.60
23475;DHT22;11910;52.086;21.066;2022-07-23T07:40:23;26.70;95.30
23475;DHT22;11910;52.086;21.066;2022-07-23T07:42:51;26.80;94.70
23475;DHT22;11910;52.086;21.066;2022-07-23T07:45:19;26.90;91.30
23475;DHT22;11910;52.086;21.066;2022-07-23T07:47:45;26.90;91.00
23475;DHT22;11910;52.086;21.066;2022-07-23T07:50:10;27.00;90.20
23475;DHT22;11910;52.086;21.066;2022-07-23T07:52:36;27.10;90.40
23475;DHT22;11910;52.086;21.066;2022-07-23T07:55:07;27.10;90.00
23475;DHT22;11910;52.086;21.066;2022-07-23T07:57:33;27.20;90.70
23475;DHT22;11910;52.086;21.066;2022-07-23T07:59:59;27.40;90.20
23475;DHT22;11910;52.086;21.066;2022-07-23T08:02:25;27.50;89.40
23475;DHT22;11910;52.086;21.066;2022-07-23T08:04:51;27.50;87.60
23475;DHT22;11910;52.086;21.066;2022-07-23T08:07:17;27.60;87.40
23475;DHT22;11910;52.086;21.066;2022-07-23T08:09:43;27.70;86.70
23475;DHT22;11910;52.086;21.066;2022-07-23T08:12:08;27.90;87.80
23475;DHT22;11910;52.086;21.066;2022-07-23T08:14:34;28.00;86.90
23475;DHT22;11910;52.086;21.066;2022-07-23T08:17:00;28.00;85.30
23475;DHT22;11910;52.086;21.066;2022-07-23T08:19:26;28.20;83.00
23475;DHT22;11910;52.086;21.066;2022-07-23T08:21:51;28.30;81.90
23475;DHT22;11910;52.086;21.066;2022-07-23T08:24:17;28.40;80.60
23475;DHT22;11910;52.086;21.066;2022-07-23T08:26:43;28.50;80.60
23475;DHT22;11910;52.086;21.066;2022-07-23T08:29:09;28.60;79.70
23475;DHT22;11910;52.086;21.066;2022-07-23T08:31:35;28.70;78.60
23475;DHT22;11910;52.086;21.066;2022-07-23T08:34:01;28.80;78.80
23475;DHT22;11910;52.086;21.066;2022-07-23T08:36:28;29.00;78.10
23475;DHT22;11910;52.086;21.066;2022-07-23T08:38:58;29.20;81.00
23475;DHT22;11910;52.086;21.066;2022-07-23T08:41:24;29.50;77.80
23475;DHT22;11910;52.086;21.066;2022-07-23T08:43:50;29.50;73.50
23475;DHT22;11910;52.086;21.066;2022-07-23T08:46:17;29.60;73.90
23475;DHT22;11910;52.086;21.066;2022-07-23T08:48:48;29.70;74.10
23475;DHT22;11910;52.086;21.066;2022-07-23T08:51:13;29.90;75.40
23475;DHT22;11910;52.086;21.066;2022-07-23T08:53:40;30.70;71.70
23475;DHT22;11910;52.086;21.066;2022-07-23T08:56:07;32.10;66.60
23475;DHT22;11910;52.086;21.066;2022-07-23T08:58:33;34.40;60.30
23475;DHT22;11910;52.086;21.066;2022-07-23T09:01:00;35.80;56.10
23475;DHT22;11910;52.086;21.066;2022-07-23T09:03:29;37.00;53.10
23475;DHT22;11910;52.086;21.066;2022-07-23T09:05:56;38.10;50.40
23475;DHT22;11910;52.086;21.066;2022-07-23T09:08:43;39.00;48.40
23475;DHT22;11910;52.086;21.066;2022-07-23T09:11:11;39.70;46.00
23475;DHT22;11910;52.086;21.066;2022-07-23T09:13:50;40.40;45.10
23475;DHT22;11910;52.086;21.066;2022-07-23T09:16:25;40.90;43.00
23475;DHT22;11910;52.086;21.066;2022-07-23T09:18:56;41.40;44.00
23475;DHT22;11910;52.086;21.066;2022-07-23T09:21:24;41.80;41.40
23475;DHT22;11910;52.086;21.066;2022-07-23T09:24:26;42.20;41.70
23475;DHT22;11910;52.086;21.066;2022-07-23T09:26:47;42.40;42.10
23475;DHT22;11910;52.086;21.066;2022-07-23T09:29:21;42.50;40.90
23475;DHT22;11910;52.086;21.066;2022-07-23T09:32:01;42.70;39.80
23475;DHT22;11910;52.086;21.066;2022-07-23T09:34:34;42.90;38.50
23475;DHT22;11910;52.086;21.066;2022-07-23T09:37:16;43.10;39.10
23475;DHT22;11910;52.086;21.066;2022-07-23T09:39:44;43.20;39.20
23475;DHT22;11910;52.086;21.066;2022-07-23T09:42:17;43.20;39.20
23475;DHT22;11910;52.086;21.066;2022-07-23T09:44:44;43.00;38.70
23475;DHT22;11910;52.086;21.066;2022-07-23T09:47:10;43.10;39.60
23475;DHT22;11910;52.086;21.066;2022-07-23T09:49:36;42.70;39.10
23475;DHT22;11910;52.086;21.066;2022-07-23T09:52:03;42.70;38.50
23475;DHT22;11910;52.086;21.066;2022-07-23T09:56:58;42.10;41.00
23475;DHT22;11910;52.086;21.066;2022-07-23T09:59:27;41.40;39.70
23475;DHT22;11910;52.086;21.066;2022-07-23T10:01:58;41.70;39.30
23475;DHT22;11910;52.086;21.066;2022-07-23T10:04:26;42.00;39.90
23475;DHT22;11910;52.086;21.066;2022-07-23T10:06:53;42.10;41.20
23475;DHT22;11910;52.086;21.066;2022-07-23T10:09:31;42.00;39.70
23475;DHT22;11910;52.086;21.066;2022-07-23T10:11:59;41.50;39.70
23475;DHT22;11910;52.086;21.066;2022-07-23T10:14:44;41.40;40.20
23475;DHT22;11910;52.086;21.066;2022-07-23T10:17:10;41.20;40.10
23475;DHT22;11910;52.086;21.066;2022-07-23T10:19:36;40.40;40.50
23475;DHT22;11910;52.086;21.066;2022-07-23T10:22:14;39.60;40.60
23475;DHT22;11910;52.086;21.066;2022-07-23T10:24:55;39.10;42.40
23475;DHT22;11910;52.086;21.066;2022-07-23T10:27:31;38.60;43.00
23475;DHT22;11910;52.086;21.066;2022-07-23T10:31:06;38.00;43.00
23475;DHT22;11910;52.086;21.066;2022-07-23T10:41:36;36.40;44.50
23475;DHT22;11910;52.086;21.066;2022-07-23T10:44:12;36.20;45.40
23475;DHT22;11910;52.086;21.066;2022-07-23T10:46:58;36.00;45.40
23475;DHT22;11910;52.086;21.066;2022-07-23T10:49:34;35.80;45.40
23475;DHT22;11910;52.086;21.066;2022-07-23T10:54:54;35.20;45.10
23475;DHT22;11910;52.086;21.066;2022-07-23T10:57:27;35.10;46.10
23475;DHT22;11910;52.086;21.066;2022-07-23T11:02:30;34.90;47.80
23475;DHT22;11910;52.086;21.066;2022-07-23T11:05:01;34.80;50.90
23475;DHT22;11910;52.086;21.066;2022-07-23T11:07:27;34.70;48.10
23475;DHT22;11910;52.086;21.066;2022-07-23T11:09:53;34.70;46.60
23475;DHT22;11910;52.086;21.066;2022-07-23T11:15:04;34.50;47.60
23475;DHT22;11910;52.086;21.066;2022-07-23T11:17:33;34.50;47.20
23475;DHT22;11910;52.086;21.066;2022-07-23T11:25:11;34.00;49.60
23475;DHT22;11910;52.086;21.066;2022-07-23T11:27:41;33.90;48.40
23475;DHT22;11910;52.086;21.066;2022-07-23T11:32:54;33.60;48.20
23475;DHT22;11910;52.086;21.066;2022-07-23T11:36:00;33.50;48.40
23475;DHT22;11910;52.086;21.066;2022-07-23T11:38:31;33.50;50.90
23475;DHT22;11910;52.086;21.066;2022-07-23T11:40:57;33.40;49.50
23475;DHT22;11910;52.086;21.066;2022-07-23T11:43:23;33.30;48.80
23475;DHT22;11910;52.086;21.066;2022-07-23T11:45:53;33.20;49.00
23475;DHT22;11910;52.086;21.066;2022-07-23T11:48:22;33.20;50.70
23475;DHT22;11910;52.086;21.066;2022-07-23T11:50:49;33.20;49.70
23475;DHT22;11910;52.086;21.066;2022-07-23T11:53:26;33.10;51.00
23475;DHT22;11910;52.086;21.066;2022-07-23T11:55:52;33.10;50.80
23475;DHT22;11910;52.086;21.066;2022-07-23T11:58:18;33.10;50.70
23475;DHT22;11910;52.086;21.066;2022-07-23T12:00:44;33.00;50.10
23475;DHT22;11910;52.086;21.066;2022-07-23T12:03:10;33.10;51.30
23475;DHT22;11910;52.086;21.066;2022-07-23T12:05:37;33.10;52.60
23475;DHT22;11910;52.086;21.066;2022-07-23T12:08:07;33.10;52.20
23475;DHT22;11910;52.086;21.066;2022-07-23T12:10:35;33.00;51.90
23475;DHT22;11910;52.086;21.066;2022-07-23T12:13:09;33.00;51.00
23475;DHT22;11910;52.086;21.066;2022-07-23T12:15:50;33.00;50.30
23475;DHT22;11910;52.086;21.066;2022-07-23T12:18:23;33.00;49.90
23475;DHT22;11910;52.086;21.066;2022-07-23T12:20:54;32.90;49.90
23475;DHT22;11910;52.086;21.066;2022-07-23T12:23:23;32.80;53.70
23475;DHT22;11910;52.086;21.066;2022-07-23T12:25:51;32.80;50.60
23475;DHT22;11910;52.086;21.066;2022-07-23T12:28:20;32.80;53.90
23475;DHT22;11910;52.086;21.066;2022-07-23T12:30:53;32.70;55.40
23475;DHT22;11910;52.086;21.066;2022-07-23T12:33:27;32.90;56.40
23475;DHT22;11910;52.086;21.066;2022-07-23T12:35:55;32.90;52.20
23475;DHT22;11910;52.086;21.066;2022-07-23T12:38:23;32.90;51.10
23475;DHT22;11910;52.086;21.066;2022-07-23T12:40:57;32.90;51.60
23475;DHT22;11910;52.086;21.066;2022-07-23T12:43:28;32.90;49.80
23475;DHT22;11910;52.086;21.066;2022-07-23T12:48:33;32.70;49.20
23475;DHT22;11910;52.086;21.066;2022-07-23T12:51:03;32.80;49.20
23475;DHT22;11910;52.086;21.066;2022-07-23T12:53:41;32.80;52.00
23475;DHT22;11910;52.086;21.066;2022-07-23T12:56:15;32.80;51.80
23475;DHT22;11910;52.086;21.066;2022-07-23T12:58:53;32.70;51.50
23475;DHT22;11910;52.086;21.066;2022-07-23T13:06:25;32.60;53.20
23475;DHT22;11910;52.086;21.066;2022-07-23T13:08:50;32.50;55.80
23475;DHT22;11910;52.086;21.066;2022-07-23T13:11:16;32.40;55.20
23475;DHT22;11910;52.086;21.066;2022-07-23T13:13:42;32.50;57.80
23475;DHT22;11910;52.086;21.066;2022-07-23T13:16:08;32.40;53.40
23475;DHT22;11910;52.086;21.066;2022-07-23T13:18:33;32.40;50.70
23475;DHT22;11910;52.086;21.066;2022-07-23T13:20:59;32.40;55.60
23475;DHT22;11910;52.086;21.066;2022-07-23T13:23:25;32.40;53.50
23475;DHT22;11910;52.086;21.066;2022-07-23T13:25:51;32.40;54.30
23475;DHT22;11910;52.086;21.066;2022-07-23T13:28:18;32.50;51.30
23475;DHT22;11910;52.086;21.066;2022-07-23T13:30:45;32.60;51.90
23475;DHT22;11910;52.086;21.066;2022-07-23T13:33:11;32.70;52.40
23475;DHT22;11910;52.086;21.066;2022-07-23T13:35:37;32.80;51.50
23475;DHT22;11910;52.086;21.066;2022-07-23T13:38:04;32.70;53.50
23475;DHT22;11910;52.086;21.066;2022-07-23T13:40:30;32.70;53.50
23475;DHT22;11910;52.086;21.066;2022-07-23T13:42:56;32.60;53.50
23475;DHT22;11910;52.086;21.066;2022-07-23T13:45:22;32.70;53.60
23475;DHT22;11910;52.086;21.066;2022-07-23T13:47:48;32.60;54.20
23475;DHT22;11910;52.086;21.066;2022-07-23T13:50:13;32.50;54.00
23475;DHT22;11910;52.086;21.066;2022-07-23T13:52:42;32.40;56.70
23475;DHT22;11910;52.086;21.066;2022-07-23T13:55:07;32.30;53.50
23475;DHT22;11910;52.086;21.066;2022-07-23T13:57:33;32.30;54.70
23475;DHT22;11910;52.086;21.066;2022-07-23T13:59:59;32.10;56.50
23475;DHT22;11910;52.086;21.066;2022-07-23T14:02:25;31.90;54.30
23475;DHT22;11910;52.086;21.066;2022-07-23T14:04:52;31.70;57.10
23475;DHT22;11910;52.086;21.066;2022-07-23T14:07:18;31.50;59.90
23475;DHT22;11910;52.086;21.066;2022-07-23T14:09:44;31.30;60.80
23475;DHT22;11910;52.086;21.066;2022-07-23T14:12:10;31.10;63.90
23475;DHT22;11910;52.086;21.066;2022-07-23T14:14:36;31.00;62.50
23475;DHT22;11910;52.086;21.066;2022-07-23T14:17:02;30.90;55.90
23475;DHT22;11910;52.086;21.066;2022-07-23T14:19:28;30.80;55.40
23475;DHT22;11910;52.086;21.066;2022-07-23T14:21:54;30.70;58.30
23475;DHT22;11910;52.086;21.066;2022-07-23T14:24:20;30.60;58.30
23475;DHT22;11910;52.086;21.066;2022-07-23T14:26:46;30.50;59.30
23475;DHT22;11910;52.086;21.066;2022-07-23T14:29:12;30.30;64.50
23475;DHT22;11910;52.086;21.066;2022-07-23T14:31:37;30.30;64.20
23475;DHT22;11910;52.086;21.066;2022-07-23T14:34:03;30.00;69.90
23475;DHT22;11910;52.086;21.066;2022-07-23T14:36:29;29.90;71.30
23475;DHT22;11910;52.086;21.066;2022-07-23T14:38:55;29.80;70.30
23475;DHT22;11910;52.086;21.066;2022-07-23T14:41:20;29.70;72.30
23475;DHT22;11910;52.086;21.066;2022-07-23T14:43:46;29.60;69.60
23475;DHT22;11910;52.086;21.066;2022-07-23T14:46:12;29.50;64.20
23475;DHT22;11910;52.086;21.066;2022-07-23T14:48:38;29.40;63.10
23475;DHT22;11910;52.086;21.066;2022-07-23T14:51:04;29.00;64.50
23475;DHT22;11910;52.086;21.066;2022-07-23T14:53:30;28.60;66.20
23475;DHT22;11910;52.086;21.066;2022-07-23T14:55:56;28.20;67.90
23475;DHT22;11910;52.086;21.066;2022-07-23T14:58:23;27.70;70.30
23475;DHT22;11910;52.086;21.066;2022-07-23T15:00:49;27.20;73.90
23475;DHT22;11910;52.086;21.066;2022-07-23T15:03:15;26.80;74.90
23475;DHT22;11910;52.086;21.066;2022-07-23T15:05:41;26.40;76.30
23475;DHT22;11910;52.086;21.066;2022-07-23T15:08:06;26.00;78.10
23475;DHT22;11910;52.086;21.066;2022-07-23T15:10:32;25.80;78.80
23475;DHT22;11910;52.086;21.066;2022-07-23T15:12:58;25.40;79.60
23475;DHT22;11910;52.086;21.066;2022-07-23T15:15:23;25.20;81.80
23475;DHT22;11910;52.086;21.066;2022-07-23T15:17:49;25.00;82.70
23475;DHT22;11910;52.086;21.066;2022-07-23T15:20:15;24.90;83.40
23475;DHT22;11910;52.086;21.066;2022-07-23T15:22:41;24.70;85.00
23475;DHT22;11910;52.086;21.066;2022-07-23T15:25:07;24.60;87.10
23475;DHT22;11910;52.086;21.066;2022-07-23T15:27:33;24.50;90.50
23475;DHT22;11910;52.086;21.066;2022-07-23T15:29:59;24.40;92.30
23475;DHT22;11910;52.086;21.066;2022-07-23T15:32:24;24.10;94.90
23475;DHT22;11910;52.086;21.066;2022-07-23T15:34:54;24.00;97.50
23475;DHT22;11910;52.086;21.066;2022-07-23T15:37:21;23.80;99.00
23475;DHT22;11910;52.086;21.066;2022-07-23T15:39:48;23.60;99.90
23475;DHT22;11910;52.086;21.066;2022-07-23T15:42:14;23.40;99.90
23475;DHT22;11910;52.086;21.066;2022-07-23T15:44:40;23.10;99.90
23475;DHT22;11910;52.086;21.066;2022-07-23T15:47:11;22.90;99.90
23475;DHT22;11910;52.086;21.066;2022-07-23T15:49:37;22.70;99.90
23475;DHT22;11910;52.086;21.066;2022-07-23T15:52:03;22.40;99.90
23475;DHT22;11910;52.086;21.066;2022-07-23T15:54:29;22.20;99.90
23475;DHT22;11910;52.086;21.066;2022-07-23T15:56:55;22.00;99.90
23475;DHT22;11910;52.086;21.066;2022-07-23T15:59:21;21.70;99.90
23475;DHT22;11910;52.086;21.066;2022-07-23T16:01:50;21.60;99.90